sensor_id;sensor_type;location;lat;lon;timestamp;P1;durP1;ratioP1;P2;durP2;ratioP2
59127;SDS011;44912;52.754;5.994;2023-06-26T00:00:02;12.15;;;7.88;;
59127;SDS011;44912;52.754;5.994;2023-06-26T00:02:30;9.23;;;6.82;;
59127;SDS011;44912;52.754;5.994;2023-06-26T00:04:57;10.75;;;7.70;;
59127;SDS011;44912;52.754;5.994;2023-06-26T00:07:23;9.57;;;6.90;;
59127;SDS011;44912;52.754;5.994;2023-06-26T00:09:49;11.15;;;7.47;;
59127;SDS011;44912;52.754;5.994;2023-06-26T00:12:14;8.82;;;7.25;;
59127;SDS011;44912;52.754;5.994;2023-06-26T00:14:40;9.50;;;7.45;;
59127;SDS011;44912;52.754;5.994;2023-06-26T00:17:05;10.05;;;7.65;;
59127;SDS011;44912;52.754;5.994;2023-06-26T00:19:31;10.05;;;7.13;;
59127;SDS011;44912;52.754;5.994;2023-06-26T00:21:56;10.45;;;7.88;;
59127;SDS011;44912;52.754;5.994;2023-06-26T00:24:22;11.02;;;7.90;;
59127;SDS011;44912;52.754;5.994;2023-06-26T00:26:48;10.60;;;7.50;;
59127;SDS011;44912;52.754;5.994;2023-06-26T00:29:13;9.57;;;7.07;;
59127;SDS011;44912;52.754;5.994;2023-06-26T00:31:39;8.90;;;7.45;;
59127;SDS011;44912;52.754;5.994;2023-06-26T00:34:05;11.55;;;7.75;;
59127;SDS011;44912;52.754;5.994;2023-06-26T00:36:31;9.82;;;7.63;;
59127;SDS011;44912;52.754;5.994;2023-06-26T00:38:56;10.98;;;8.13;;
59127;SDS011;44912;52.754;5.994;2023-06-26T00:41:22;9.05;;;7.72;;
59127;SDS011;44912;52.754;5.994;2023-06-26T00:43:47;10.20;;;8.23;;
59127;SDS011;44912;52.754;5.994;2023-06-26T00:46:13;9.95;;;8.35;;
59127;SDS011;44912;52.754;5.994;2023-06-26T00:48:40;10.13;;;7.75;;
59127;SDS011;44912;52.754;5.994;2023-06-26T00:51:07;12.00;;;7.80;;
59127;SDS011;44912;52.754;5.994;2023-06-26T00:53:34;12.60;;;8.75;;
59127;SDS011;44912;52.754;5.994;2023-06-26T00:55:59;9.70;;;8.18;;
59127;SDS011;44912;52.754;5.994;2023-06-26T00:58:27;10.38;;;8.35;;
59127;SDS011;44912;52.754;5.994;2023-06-26T01:00:53;10.13;;;8.30;;
59127;SDS011;44912;52.754;5.994;2023-06-26T01:03:19;10.55;;;7.70;;
59127;SDS011;44912;52.754;5.994;2023-06-26T01:05:46;10.27;;;8.18;;
59127;SDS011;44912;52.754;5.994;2023-06-26T01:08:14;9.48;;;7.70;;
59127;SDS011;44912;52.754;5.994;2023-06-26T01:10:42;11.57;;;8.07;;
59127;SDS011;44912;52.754;5.994;2023-06-26T01:13:08;10.73;;;7.90;;
59127;SDS011;44912;52.754;5.994;2023-06-26T01:15:34;13.07;;;8.98;;
59127;SDS011;44912;52.754;5.994;2023-06-26T01:18:00;10.15;;;7.93;;
59127;SDS011;44912;52.754;5.994;2023-06-26T01:20:29;10.45;;;8.30;;
59127;SDS011;44912;52.754;5.994;2023-06-26T01:23:05;10.88;;;8.20;;
59127;SDS011;44912;52.754;5.994;2023-06-26T01:26:21;11.90;;;8.50;;
59127;SDS011;44912;52.754;5.994;2023-06-26T01:28:27;11.38;;;8.48;;
59127;SDS011;44912;52.754;5.994;2023-06-26T01:30:54;10.45;;;9.07;;
59127;SDS011;44912;52.754;5.994;2023-06-26T01:33:20;10.75;;;8.38;;
59127;SDS011;44912;52.754;5.994;2023-06-26T01:35:46;9.88;;;8.32;;
59127;SDS011;44912;52.754;5.994;2023-06-26T01:38:16;11.23;;;8.70;;
59127;SDS011;44912;52.754;5.994;2023-06-26T01:40:43;15.27;;;8.30;;
59127;SDS011;44912;52.754;5.994;2023-06-26T01:43:11;10.52;;;8.35;;
59127;SDS011;44912;52.754;5.994;2023-06-26T01:45:51;10.15;;;8.00;;
59127;SDS011;44912;52.754;5.994;2023-06-26T01:48:23;12.10;;;9.98;;
59127;SDS011;44912;52.754;5.994;2023-06-26T01:50:51;12.18;;;9.75;;
59127;SDS011;44912;52.754;5.994;2023-06-26T01:53:18;10.88;;;9.63;;
59127;SDS011;44912;52.754;5.994;2023-06-26T01:55:50;12.00;;;10.20;;
59127;SDS011;44912;52.754;5.994;2023-06-26T01:58:22;11.68;;;9.52;;
59127;SDS011;44912;52.754;5.994;2023-06-26T02:00:50;13.38;;;10.63;;
59127;SDS011;44912;52.754;5.994;2023-06-26T02:03:16;13.35;;;10.82;;
59127;SDS011;44912;52.754;5.994;2023-06-26T02:05:41;11.88;;;10.43;;
59127;SDS011;44912;52.754;5.994;2023-06-26T02:08:08;11.95;;;10.15;;
59127;SDS011;44912;52.754;5.994;2023-06-26T02:10:33;12.38;;;10.82;;
59127;SDS011;44912;52.754;5.994;2023-06-26T02:13:00;13.60;;;11.02;;
59127;SDS011;44912;52.754;5.994;2023-06-26T02:15:26;13.45;;;10.60;;
59127;SDS011;44912;52.754;5.994;2023-06-26T02:17:51;13.75;;;10.82;;
59127;SDS011;44912;52.754;5.994;2023-06-26T02:20:17;12.27;;;9.93;;
59127;SDS011;44912;52.754;5.994;2023-06-26T02:22:43;12.38;;;10.68;;
59127;SDS011;44912;52.754;5.994;2023-06-26T02:25:09;13.25;;;10.60;;
59127;SDS011;44912;52.754;5.994;2023-06-26T02:27:35;12.88;;;10.60;;
59127;SDS011;44912;52.754;5.994;2023-06-26T02:30:01;12.30;;;10.35;;
59127;SDS011;44912;52.754;5.994;2023-06-26T02:32:27;13.25;;;10.38;;
59127;SDS011;44912;52.754;5.994;2023-06-26T02:34:52;13.45;;;10.63;;
59127;SDS011;44912;52.754;5.994;2023-06-26T02:37:19;13.40;;;10.90;;
59127;SDS011;44912;52.754;5.994;2023-06-26T02:39:44;12.35;;;10.70;;
59127;SDS011;44912;52.754;5.994;2023-06-26T02:42:10;12.85;;;10.98;;
59127;SDS011;44912;52.754;5.994;2023-06-26T02:44:36;13.73;;;11.30;;
59127;SDS011;44912;52.754;5.994;2023-06-26T02:47:01;13.20;;;11.52;;
59127;SDS011;44912;52.754;5.994;2023-06-26T02:49:27;14.55;;;11.43;;
59127;SDS011;44912;52.754;5.994;2023-06-26T02:51:52;13.90;;;11.23;;
59127;SDS011;44912;52.754;5.994;2023-06-26T02:54:18;12.57;;;10.00;;
59127;SDS011;44912;52.754;5.994;2023-06-26T02:56:43;13.13;;;9.88;;
59127;SDS011;44912;52.754;5.994;2023-06-26T02:59:09;12.82;;;11.40;;
59127;SDS011;44912;52.754;5.994;2023-06-26T03:01:34;12.27;;;9.93;;
59127;SDS011;44912;52.754;5.994;2023-06-26T03:04:00;11.15;;;8.73;;
59127;SDS011;44912;52.754;5.994;2023-06-26T03:06:26;13.60;;;9.50;;
59127;SDS011;44912;52.754;5.994;2023-06-26T03:08:52;13.70;;;9.20;;
59127;SDS011;44912;52.754;5.994;2023-06-26T03:11:18;14.30;;;8.68;;
59127;SDS011;44912;52.754;5.994;2023-06-26T03:13:44;13.32;;;8.75;;
59127;SDS011;44912;52.754;5.994;2023-06-26T03:16:10;12.48;;;8.00;;
59127;SDS011;44912;52.754;5.994;2023-06-26T03:18:35;13.27;;;9.07;;
59127;SDS011;44912;52.754;5.994;2023-06-26T03:21:01;13.02;;;7.97;;
59127;SDS011;44912;52.754;5.994;2023-06-26T03:23:28;14.32;;;8.25;;
59127;SDS011;44912;52.754;5.994;2023-06-26T03:25:53;13.18;;;8.35;;
59127;SDS011;44912;52.754;5.994;2023-06-26T03:28:19;14.30;;;7.60;;
59127;SDS011;44912;52.754;5.994;2023-06-26T03:30:44;15.00;;;8.13;;
59127;SDS011;44912;52.754;5.994;2023-06-26T03:33:10;12.93;;;8.02;;
59127;SDS011;44912;52.754;5.994;2023-06-26T03:35:36;12.43;;;7.30;;
59127;SDS011;44912;52.754;5.994;2023-06-26T03:38:03;15.15;;;8.63;;
59127;SDS011;44912;52.754;5.994;2023-06-26T03:40:29;14.35;;;7.78;;
59127;SDS011;44912;52.754;5.994;2023-06-26T03:42:54;16.20;;;8.02;;
59127;SDS011;44912;52.754;5.994;2023-06-26T03:45:20;12.57;;;8.20;;
59127;SDS011;44912;52.754;5.994;2023-06-26T03:47:45;14.02;;;8.60;;
59127;SDS011;44912;52.754;5.994;2023-06-26T03:50:15;13.70;;;8.88;;
59127;SDS011;44912;52.754;5.994;2023-06-26T03:52:41;13.43;;;9.02;;
59127;SDS011;44912;52.754;5.994;2023-06-26T03:55:07;15.07;;;9.57;;
59127;SDS011;44912;52.754;5.994;2023-06-26T03:57:33;16.17;;;9.15;;
59127;SDS011;44912;52.754;5.994;2023-06-26T03:59:58;17.40;;;9.80;;
59127;SDS011;44912;52.754;5.994;2023-06-26T04:02:24;16.92;;;9.57;;
59127;SDS011;44912;52.754;5.994;2023-06-26T04:04:49;15.15;;;8.50;;
59127;SDS011;44912;52.754;5.994;2023-06-26T04:07:15;17.65;;;9.43;;
59127;SDS011;44912;52.754;5.994;2023-06-26T04:09:41;16.20;;;9.13;;
59127;SDS011;44912;52.754;5.994;2023-06-26T04:12:06;16.83;;;8.73;;
59127;SDS011;44912;52.754;5.994;2023-06-26T04:14:32;17.95;;;8.13;;
59127;SDS011;44912;52.754;5.994;2023-06-26T04:16:57;14.95;;;8.63;;
59127;SDS011;44912;52.754;5.994;2023-06-26T04:19:25;17.35;;;9.00;;
59127;SDS011;44912;52.754;5.994;2023-06-26T04:21:50;16.67;;;8.57;;
59127;SDS011;44912;52.754;5.994;2023-06-26T04:24:16;18.23;;;8.32;;
59127;SDS011;44912;52.754;5.994;2023-06-26T04:26:42;17.25;;;8.88;;
59127;SDS011;44912;52.754;5.994;2023-06-26T04:29:07;17.58;;;8.48;;
59127;SDS011;44912;52.754;5.994;2023-06-26T04:31:33;14.98;;;8.68;;
59127;SDS011;44912;52.754;5.994;2023-06-26T04:33:59;18.95;;;8.70;;
59127;SDS011;44912;52.754;5.994;2023-06-26T04:36:24;14.25;;;8.27;;
59127;SDS011;44912;52.754;5.994;2023-06-26T04:38:54;18.95;;;8.70;;
59127;SDS011;44912;52.754;5.994;2023-06-26T04:41:20;17.88;;;8.10;;
59127;SDS011;44912;52.754;5.994;2023-06-26T04:43:46;17.77;;;8.70;;
59127;SDS011;44912;52.754;5.994;2023-06-26T04:46:11;15.30;;;8.95;;
59127;SDS011;44912;52.754;5.994;2023-06-26T04:48:37;15.98;;;8.80;;
59127;SDS011;44912;52.754;5.994;2023-06-26T04:51:02;15.02;;;8.23;;
59127;SDS011;44912;52.754;5.994;2023-06-26T04:53:28;14.95;;;8.35;;
59127;SDS011;44912;52.754;5.994;2023-06-26T04:55:54;15.63;;;8.55;;
59127;SDS011;44912;52.754;5.994;2023-06-26T04:58:19;12.57;;;7.47;;
59127;SDS011;44912;52.754;5.994;2023-06-26T05:00:45;12.93;;;7.28;;
59127;SDS011;44912;52.754;5.994;2023-06-26T05:03:11;12.70;;;6.53;;
59127;SDS011;44912;52.754;5.994;2023-06-26T05:05:38;13.13;;;6.57;;
59127;SDS011;44912;52.754;5.994;2023-06-26T05:08:13;11.85;;;5.70;;
59127;SDS011;44912;52.754;5.994;2023-06-26T05:10:41;11.50;;;4.88;;
59127;SDS011;44912;52.754;5.994;2023-06-26T05:13:07;11.00;;;5.63;;
59127;SDS011;44912;52.754;5.994;2023-06-26T05:15:32;12.35;;;5.13;;
59127;SDS011;44912;52.754;5.994;2023-06-26T05:17:58;8.95;;;4.68;;
59127;SDS011;44912;52.754;5.994;2023-06-26T05:20:23;11.48;;;4.53;;
59127;SDS011;44912;52.754;5.994;2023-06-26T05:22:49;10.65;;;4.72;;
59127;SDS011;44912;52.754;5.994;2023-06-26T05:25:15;9.13;;;3.80;;
59127;SDS011;44912;52.754;5.994;2023-06-26T05:27:41;11.25;;;3.30;;
59127;SDS011;44912;52.754;5.994;2023-06-26T05:30:07;10.50;;;3.40;;
59127;SDS011;44912;52.754;5.994;2023-06-26T05:32:34;8.07;;;3.35;;
59127;SDS011;44912;52.754;5.994;2023-06-26T05:35:01;8.00;;;3.22;;
59127;SDS011;44912;52.754;5.994;2023-06-26T05:37:28;6.82;;;2.85;;
59127;SDS011;44912;52.754;5.994;2023-06-26T05:39:55;8.52;;;3.08;;
59127;SDS011;44912;52.754;5.994;2023-06-26T05:42:21;10.32;;;2.70;;
59127;SDS011;44912;52.754;5.994;2023-06-26T05:44:47;7.80;;;2.42;;
59127;SDS011;44912;52.754;5.994;2023-06-26T05:47:12;9.13;;;2.67;;
59127;SDS011;44912;52.754;5.994;2023-06-26T05:49:38;7.22;;;2.38;;
59127;SDS011;44912;52.754;5.994;2023-06-26T05:52:03;7.50;;;2.47;;
59127;SDS011;44912;52.754;5.994;2023-06-26T05:54:29;7.55;;;2.35;;
59127;SDS011;44912;52.754;5.994;2023-06-26T05:56:58;8.45;;;2.90;;
59127;SDS011;44912;52.754;5.994;2023-06-26T05:59:24;9.57;;;2.70;;
59127;SDS011;44912;52.754;5.994;2023-06-26T06:01:51;6.63;;;2.60;;
59127;SDS011;44912;52.754;5.994;2023-06-26T06:04:17;6.15;;;2.33;;
59127;SDS011;44912;52.754;5.994;2023-06-26T06:06:43;7.57;;;2.88;;
59127;SDS011;44912;52.754;5.994;2023-06-26T06:09:08;6.97;;;2.65;;
59127;SDS011;44912;52.754;5.994;2023-06-26T06:11:34;8.25;;;2.20;;
59127;SDS011;44912;52.754;5.994;2023-06-26T06:13:59;6.82;;;2.30;;
59127;SDS011;44912;52.754;5.994;2023-06-26T06:16:25;4.78;;;2.15;;
59127;SDS011;44912;52.754;5.994;2023-06-26T06:18:53;8.02;;;2.90;;
59127;SDS011;44912;52.754;5.994;2023-06-26T06:21:19;7.72;;;2.33;;
59127;SDS011;44912;52.754;5.994;2023-06-26T06:23:45;7.63;;;2.53;;
59127;SDS011;44912;52.754;5.994;2023-06-26T06:26:10;7.75;;;2.35;;
59127;SDS011;44912;52.754;5.994;2023-06-26T06:28:36;8.00;;;2.65;;
59127;SDS011;44912;52.754;5.994;2023-06-26T06:31:02;5.88;;;2.53;;
59127;SDS011;44912;52.754;5.994;2023-06-26T06:33:27;9.02;;;2.70;;
59127;SDS011;44912;52.754;5.994;2023-06-26T06:35:53;7.63;;;2.25;;
59127;SDS011;44912;52.754;5.994;2023-06-26T06:38:18;9.60;;;2.30;;
59127;SDS011;44912;52.754;5.994;2023-06-26T06:40:47;6.78;;;2.30;;
59127;SDS011;44912;52.754;5.994;2023-06-26T06:43:13;5.28;;;1.88;;
59127;SDS011;44912;52.754;5.994;2023-06-26T06:45:38;7.25;;;2.28;;
59127;SDS011;44912;52.754;5.994;2023-06-26T06:48:04;9.80;;;1.83;;
59127;SDS011;44912;52.754;5.994;2023-06-26T06:50:30;6.07;;;1.92;;
59127;SDS011;44912;52.754;5.994;2023-06-26T06:52:56;7.43;;;2.30;;
59127;SDS011;44912;52.754;5.994;2023-06-26T06:55:21;7.22;;;2.33;;
59127;SDS011;44912;52.754;5.994;2023-06-26T06:57:47;6.47;;;2.00;;
59127;SDS011;44912;52.754;5.994;2023-06-26T07:00:13;5.63;;;2.17;;
59127;SDS011;44912;52.754;5.994;2023-06-26T07:02:40;5.10;;;1.95;;
59127;SDS011;44912;52.754;5.994;2023-06-26T07:05:07;8.45;;;2.17;;
59127;SDS011;44912;52.754;5.994;2023-06-26T07:07:34;6.05;;;1.83;;
59127;SDS011;44912;52.754;5.994;2023-06-26T07:10:01;6.95;;;1.95;;
59127;SDS011;44912;52.754;5.994;2023-06-26T07:12:29;5.45;;;2.00;;
59127;SDS011;44912;52.754;5.994;2023-06-26T07:14:55;10.88;;;2.15;;
59127;SDS011;44912;52.754;5.994;2023-06-26T07:17:21;6.40;;;1.90;;
59127;SDS011;44912;52.754;5.994;2023-06-26T07:19:47;6.65;;;1.95;;
59127;SDS011;44912;52.754;5.994;2023-06-26T07:22:13;6.88;;;1.70;;
59127;SDS011;44912;52.754;5.994;2023-06-26T07:24:38;5.57;;;2.00;;
59127;SDS011;44912;52.754;5.994;2023-06-26T07:27:04;7.35;;;2.03;;
59127;SDS011;44912;52.754;5.994;2023-06-26T07:29:30;11.45;;;2.28;;
59127;SDS011;44912;52.754;5.994;2023-06-26T07:31:55;7.78;;;2.60;;
59127;SDS011;44912;52.754;5.994;2023-06-26T07:34:21;6.55;;;2.20;;
59127;SDS011;44912;52.754;5.994;2023-06-26T07:36:46;6.38;;;1.83;;
59127;SDS011;44912;52.754;5.994;2023-06-26T07:39:12;3.58;;;1.75;;
59127;SDS011;44912;52.754;5.994;2023-06-26T07:41:37;8.75;;;2.40;;
59127;SDS011;44912;52.754;5.994;2023-06-26T07:44:03;8.23;;;2.33;;
59127;SDS011;44912;52.754;5.994;2023-06-26T07:46:31;6.10;;;2.20;;
59127;SDS011;44912;52.754;5.994;2023-06-26T07:48:57;5.50;;;2.05;;
59127;SDS011;44912;52.754;5.994;2023-06-26T07:51:22;7.97;;;2.30;;
59127;SDS011;44912;52.754;5.994;2023-06-26T07:53:49;7.57;;;2.17;;
59127;SDS011;44912;52.754;5.994;2023-06-26T07:56:14;6.13;;;2.65;;
59127;SDS011;44912;52.754;5.994;2023-06-26T07:58:40;8.38;;;2.60;;
59127;SDS011;44912;52.754;5.994;2023-06-26T08:01:05;5.63;;;2.28;;
59127;SDS011;44912;52.754;5.994;2023-06-26T08:03:31;7.93;;;2.65;;
59127;SDS011;44912;52.754;5.994;2023-06-26T08:05:56;4.60;;;1.92;;
59127;SDS011;44912;52.754;5.994;2023-06-26T08:08:22;8.00;;;2.47;;
59127;SDS011;44912;52.754;5.994;2023-06-26T08:10:47;7.70;;;2.60;;
59127;SDS011;44912;52.754;5.994;2023-06-26T08:13:13;6.85;;;2.50;;
59127;SDS011;44912;52.754;5.994;2023-06-26T08:15:39;9.60;;;2.80;;
59127;SDS011;44912;52.754;5.994;2023-06-26T08:18:04;7.32;;;2.67;;
59127;SDS011;44912;52.754;5.994;2023-06-26T08:20:30;7.80;;;2.80;;
59127;SDS011;44912;52.754;5.994;2023-06-26T08:22:55;9.43;;;2.95;;
59127;SDS011;44912;52.754;5.994;2023-06-26T08:25:21;9.07;;;2.63;;
59127;SDS011;44912;52.754;5.994;2023-06-26T08:27:47;6.68;;;2.47;;
59127;SDS011;44912;52.754;5.994;2023-06-26T08:30:13;7.65;;;3.10;;
59127;SDS011;44912;52.754;5.994;2023-06-26T08:32:39;6.60;;;2.70;;
59127;SDS011;44912;52.754;5.994;2023-06-26T08:35:05;8.45;;;2.80;;
59127;SDS011;44912;52.754;5.994;2023-06-26T08:37:32;7.22;;;2.70;;
59127;SDS011;44912;52.754;5.994;2023-06-26T08:39:57;6.25;;;3.08;;
59127;SDS011;44912;52.754;5.994;2023-06-26T08:42:29;6.20;;;2.85;;
59127;SDS011;44912;52.754;5.994;2023-06-26T08:44:54;7.97;;;3.35;;
59127;SDS011;44912;52.754;5.994;2023-06-26T08:47:20;8.55;;;3.25;;
59127;SDS011;44912;52.754;5.994;2023-06-26T08:49:47;7.72;;;3.38;;
59127;SDS011;44912;52.754;5.994;2023-06-26T08:52:23;9.30;;;3.25;;
59127;SDS011;44912;52.754;5.994;2023-06-26T08:54:58;9.95;;;3.80;;
59127;SDS011;44912;52.754;5.994;2023-06-26T08:57:25;7.32;;;3.03;;
59127;SDS011;44912;52.754;5.994;2023-06-26T08:59:51;7.68;;;2.90;;
59127;SDS011;44912;52.754;5.994;2023-06-26T09:02:17;8.02;;;3.17;;
59127;SDS011;44912;52.754;5.994;2023-06-26T09:04:43;7.30;;;3.03;;
59127;SDS011;44912;52.754;5.994;2023-06-26T09:07:09;8.00;;;2.97;;
59127;SDS011;44912;52.754;5.994;2023-06-26T09:09:35;7.30;;;2.70;;
59127;SDS011;44912;52.754;5.994;2023-06-26T09:12:02;9.65;;;3.25;;
59127;SDS011;44912;52.754;5.994;2023-06-26T09:14:28;7.55;;;3.03;;
59127;SDS011;44912;52.754;5.994;2023-06-26T09:16:55;8.23;;;3.38;;
59127;SDS011;44912;52.754;5.994;2023-06-26T09:19:20;9.00;;;3.65;;
59127;SDS011;44912;52.754;5.994;2023-06-26T09:21:46;9.80;;;3.33;;
59127;SDS011;44912;52.754;5.994;2023-06-26T09:24:15;7.35;;;3.08;;
59127;SDS011;44912;52.754;5.994;2023-06-26T09:26:41;6.90;;;2.80;;
59127;SDS011;44912;52.754;5.994;2023-06-26T09:29:08;7.40;;;3.05;;
59127;SDS011;44912;52.754;5.994;2023-06-26T09:31:38;7.28;;;3.20;;
59127;SDS011;44912;52.754;5.994;2023-06-26T09:34:04;6.57;;;2.78;;
59127;SDS011;44912;52.754;5.994;2023-06-26T09:36:30;8.63;;;3.35;;
59127;SDS011;44912;52.754;5.994;2023-06-26T09:38:58;9.35;;;3.00;;
59127;SDS011;44912;52.754;5.994;2023-06-26T09:41:25;8.60;;;2.70;;
59127;SDS011;44912;52.754;5.994;2023-06-26T09:43:52;9.20;;;3.08;;
59127;SDS011;44912;52.754;5.994;2023-06-26T09:46:24;9.40;;;3.55;;
59127;SDS011;44912;52.754;5.994;2023-06-26T09:49:12;7.22;;;3.20;;
59127;SDS011;44912;52.754;5.994;2023-06-26T09:51:38;9.60;;;3.50;;
59127;SDS011;44912;52.754;5.994;2023-06-26T09:54:05;9.55;;;3.40;;
59127;SDS011;44912;52.754;5.994;2023-06-26T09:56:32;7.43;;;3.53;;
59127;SDS011;44912;52.754;5.994;2023-06-26T09:58:59;7.35;;;3.25;;
59127;SDS011;44912;52.754;5.994;2023-06-26T10:01:26;10.18;;;3.30;;
59127;SDS011;44912;52.754;5.994;2023-06-26T10:03:55;8.75;;;2.90;;
59127;SDS011;44912;52.754;5.994;2023-06-26T10:06:58;9.05;;;3.50;;
59127;SDS011;44912;52.754;5.994;2023-06-26T10:09:19;9.63;;;3.58;;
59127;SDS011;44912;52.754;5.994;2023-06-26T10:14:19;7.28;;;2.78;;
59127;SDS011;44912;52.754;5.994;2023-06-26T10:16:46;5.70;;;2.40;;
59127;SDS011;44912;52.754;5.994;2023-06-26T10:19:14;7.85;;;2.95;;
59127;SDS011;44912;52.754;5.994;2023-06-26T10:21:44;8.02;;;2.78;;
59127;SDS011;44912;52.754;5.994;2023-06-26T10:24:10;7.65;;;2.40;;
59127;SDS011;44912;52.754;5.994;2023-06-26T10:26:38;6.82;;;2.63;;
59127;SDS011;44912;52.754;5.994;2023-06-26T10:29:09;9.05;;;3.30;;
59127;SDS011;44912;52.754;5.994;2023-06-26T10:31:36;8.05;;;2.58;;
59127;SDS011;44912;52.754;5.994;2023-06-26T10:34:02;7.65;;;2.53;;
59127;SDS011;44912;52.754;5.994;2023-06-26T10:36:29;7.85;;;2.70;;
59127;SDS011;44912;52.754;5.994;2023-06-26T10:38:57;5.45;;;2.13;;
59127;SDS011;44912;52.754;5.994;2023-06-26T10:41:30;9.48;;;2.08;;
59127;SDS011;44912;52.754;5.994;2023-06-26T10:44:10;8.27;;;2.75;;
59127;SDS011;44912;52.754;5.994;2023-06-26T10:46:52;11.18;;;3.15;;
59127;SDS011;44912;52.754;5.994;2023-06-26T10:49:29;12.38;;;2.50;;
59127;SDS011;44912;52.754;5.994;2023-06-26T10:51:55;6.60;;;2.05;;
59127;SDS011;44912;52.754;5.994;2023-06-26T10:54:28;7.97;;;2.40;;
59127;SDS011;44912;52.754;5.994;2023-06-26T10:56:55;10.45;;;2.58;;
59127;SDS011;44912;52.754;5.994;2023-06-26T10:59:22;6.78;;;2.00;;
59127;SDS011;44912;52.754;5.994;2023-06-26T11:02:00;7.97;;;1.90;;
59127;SDS011;44912;52.754;5.994;2023-06-26T11:04:47;7.45;;;1.60;;
59127;SDS011;44912;52.754;5.994;2023-06-26T11:07:20;7.50;;;1.50;;
59127;SDS011;44912;52.754;5.994;2023-06-26T11:09:53;8.23;;;1.63;;
59127;SDS011;44912;52.754;5.994;2023-06-26T11:15:13;7.50;;;2.20;;
59127;SDS011;44912;52.754;5.994;2023-06-26T11:17:41;7.50;;;1.70;;
59127;SDS011;44912;52.754;5.994;2023-06-26T11:20:08;7.70;;;1.63;;
59127;SDS011;44912;52.754;5.994;2023-06-26T11:22:38;7.70;;;1.67;;
59127;SDS011;44912;52.754;5.994;2023-06-26T11:25:07;8.95;;;1.50;;
59127;SDS011;44912;52.754;5.994;2023-06-26T11:27:43;7.78;;;2.00;;
59127;SDS011;44912;52.754;5.994;2023-06-26T11:30:22;7.88;;;1.60;;
59127;SDS011;44912;52.754;5.994;2023-06-26T11:32:48;10.43;;;1.42;;
59127;SDS011;44912;52.754;5.994;2023-06-26T11:35:23;9.57;;;1.60;;
59127;SDS011;44912;52.754;5.994;2023-06-26T11:37:58;8.63;;;1.70;;
59127;SDS011;44912;52.754;5.994;2023-06-26T11:40:29;7.43;;;1.77;;
59127;SDS011;44912;52.754;5.994;2023-06-26T11:43:00;6.55;;;1.70;;
59127;SDS011;44912;52.754;5.994;2023-06-26T11:45:30;10.02;;;1.73;;
59127;SDS011;44912;52.754;5.994;2023-06-26T11:47:57;8.07;;;1.77;;
59127;SDS011;44912;52.754;5.994;2023-06-26T11:50:23;8.35;;;1.60;;
59127;SDS011;44912;52.754;5.994;2023-06-26T11:52:53;7.18;;;1.52;;
59127;SDS011;44912;52.754;5.994;2023-06-26T11:55:20;8.90;;;1.70;;
59127;SDS011;44912;52.754;5.994;2023-06-26T11:57:48;14.57;;;2.13;;
59127;SDS011;44912;52.754;5.994;2023-06-26T12:00:15;8.18;;;1.88;;
59127;SDS011;44912;52.754;5.994;2023-06-26T12:02:42;8.02;;;1.90;;
59127;SDS011;44912;52.754;5.994;2023-06-26T12:05:09;5.57;;;1.83;;
59127;SDS011;44912;52.754;5.994;2023-06-26T12:07:36;5.75;;;1.67;;
59127;SDS011;44912;52.754;5.994;2023-06-26T12:10:02;6.60;;;1.60;;
59127;SDS011;44912;52.754;5.994;2023-06-26T12:12:30;7.60;;;1.60;;
59127;SDS011;44912;52.754;5.994;2023-06-26T12:14:56;5.50;;;1.60;;
59127;SDS011;44912;52.754;5.994;2023-06-26T12:17:23;7.57;;;1.75;;
59127;SDS011;44912;52.754;5.994;2023-06-26T12:19:52;7.63;;;1.50;;
59127;SDS011;44912;52.754;5.994;2023-06-26T12:22:18;5.97;;;1.20;;
59127;SDS011;44912;52.754;5.994;2023-06-26T12:24:44;7.20;;;1.73;;
59127;SDS011;44912;52.754;5.994;2023-06-26T12:27:12;5.18;;;1.40;;
59127;SDS011;44912;52.754;5.994;2023-06-26T12:29:39;7.57;;;1.83;;
59127;SDS011;44912;52.754;5.994;2023-06-26T12:32:09;7.93;;;1.83;;
59127;SDS011;44912;52.754;5.994;2023-06-26T12:34:36;5.82;;;1.50;;
59127;SDS011;44912;52.754;5.994;2023-06-26T12:37:10;7.80;;;1.58;;
59127;SDS011;44912;52.754;5.994;2023-06-26T12:39:52;6.28;;;1.65;;
59127;SDS011;44912;52.754;5.994;2023-06-26T12:42:23;8.00;;;1.83;;
59127;SDS011;44912;52.754;5.994;2023-06-26T12:44:50;6.40;;;1.70;;
59127;SDS011;44912;52.754;5.994;2023-06-26T12:47:17;6.68;;;1.77;;
59127;SDS011;44912;52.754;5.994;2023-06-26T12:49:49;7.03;;;1.50;;
59127;SDS011;44912;52.754;5.994;2023-06-26T12:52:16;9.43;;;1.88;;
59127;SDS011;44912;52.754;5.994;2023-06-26T12:54:44;6.78;;;1.55;;
59127;SDS011;44912;52.754;5.994;2023-06-26T12:57:11;7.00;;;1.65;;
59127;SDS011;44912;52.754;5.994;2023-06-26T12:59:39;8.32;;;1.95;;
59127;SDS011;44912;52.754;5.994;2023-06-26T13:02:05;8.18;;;2.20;;
59127;SDS011;44912;52.754;5.994;2023-06-26T13:04:31;6.65;;;1.90;;
59127;SDS011;44912;52.754;5.994;2023-06-26T13:06:57;7.55;;;1.77;;
59127;SDS011;44912;52.754;5.994;2023-06-26T13:09:23;7.22;;;1.67;;
59127;SDS011;44912;52.754;5.994;2023-06-26T13:11:50;5.75;;;1.52;;
59127;SDS011;44912;52.754;5.994;2023-06-26T13:14:16;5.93;;;1.35;;
59127;SDS011;44912;52.754;5.994;2023-06-26T13:16:41;5.35;;;1.42;;
59127;SDS011;44912;52.754;5.994;2023-06-26T13:19:07;6.93;;;1.70;;
59127;SDS011;44912;52.754;5.994;2023-06-26T13:21:33;7.03;;;1.50;;
59127;SDS011;44912;52.754;5.994;2023-06-26T13:23:59;5.88;;;1.60;;
59127;SDS011;44912;52.754;5.994;2023-06-26T13:26:25;6.28;;;1.55;;
59127;SDS011;44912;52.754;5.994;2023-06-26T13:28:53;8.63;;;1.52;;
59127;SDS011;44912;52.754;5.994;2023-06-26T13:31:19;6.45;;;1.83;;
59127;SDS011;44912;52.754;5.994;2023-06-26T13:33:46;8.68;;;1.67;;
59127;SDS011;44912;52.754;5.994;2023-06-26T13:36:13;7.55;;;1.98;;
59127;SDS011;44912;52.754;5.994;2023-06-26T13:38:39;5.60;;;1.70;;
59127;SDS011;44912;52.754;5.994;2023-06-26T13:41:05;7.13;;;1.55;;
59127;SDS011;44912;52.754;5.994;2023-06-26T13:43:30;7.60;;;1.50;;
59127;SDS011;44912;52.754;5.994;2023-06-26T13:45:56;5.97;;;1.52;;
59127;SDS011;44912;52.754;5.994;2023-06-26T13:48:22;7.00;;;1.52;;
59127;SDS011;44912;52.754;5.994;2023-06-26T13:50:51;8.25;;;1.35;;
59127;SDS011;44912;52.754;5.994;2023-06-26T13:53:16;7.88;;;1.60;;
59127;SDS011;44912;52.754;5.994;2023-06-26T13:55:42;8.32;;;1.13;;
59127;SDS011;44912;52.754;5.994;2023-06-26T13:58:08;5.78;;;1.38;;
59127;SDS011;44912;52.754;5.994;2023-06-26T14:00:35;5.97;;;1.33;;
59127;SDS011;44912;52.754;5.994;2023-06-26T14:03:01;8.00;;;1.48;;
59127;SDS011;44912;52.754;5.994;2023-06-26T14:05:28;7.65;;;1.90;;
59127;SDS011;44912;52.754;5.994;2023-06-26T14:07:57;4.28;;;1.30;;
59127;SDS011;44912;52.754;5.994;2023-06-26T14:10:23;5.85;;;1.52;;
59127;SDS011;44912;52.754;5.994;2023-06-26T14:12:49;4.75;;;1.40;;
59127;SDS011;44912;52.754;5.994;2023-06-26T14:15:15;7.78;;;1.58;;
59127;SDS011;44912;52.754;5.994;2023-06-26T14:17:41;9.02;;;1.70;;
59127;SDS011;44912;52.754;5.994;2023-06-26T14:20:09;5.70;;;1.30;;
59127;SDS011;44912;52.754;5.994;2023-06-26T14:22:37;5.10;;;1.30;;
59127;SDS011;44912;52.754;5.994;2023-06-26T14:25:07;7.00;;;1.33;;
59127;SDS011;44912;52.754;5.994;2023-06-26T14:27:34;7.40;;;1.70;;
59127;SDS011;44912;52.754;5.994;2023-06-26T14:30:00;4.68;;;1.27;;
59127;SDS011;44912;52.754;5.994;2023-06-26T14:32:26;6.90;;;1.45;;
59127;SDS011;44912;52.754;5.994;2023-06-26T14:34:52;3.75;;;1.40;;
59127;SDS011;44912;52.754;5.994;2023-06-26T14:37:17;7.85;;;1.90;;
59127;SDS011;44912;52.754;5.994;2023-06-26T14:39:44;6.93;;;1.40;;
59127;SDS011;44912;52.754;5.994;2023-06-26T14:42:10;4.68;;;1.35;;
59127;SDS011;44912;52.754;5.994;2023-06-26T14:44:36;8.27;;;1.67;;
59127;SDS011;44912;52.754;5.994;2023-06-26T14:47:01;7.75;;;1.38;;